Stites, Idaho
Current Conditions -  °F | °C
As of 9:55 AM on Monday 24 Nov 2014 (Local Time) from KGIC Reporting Station
Clear Clear  
Wind Chill: 32°   Ceiling: Unl
Heat Index: 38°   Visibility: 10mi
Dew Point: 26°   Wind: 8mph
Humidity: 62%   Direction: 240°WSW
Pressure: 30.41"   Gusts: 21mph
Location:  46.09°N, 115.98°W
Report Text: KGIC 241755Z AUTO 24007G18KT 10SM CLR 03/M03 A3041 RMK AO1 T00341032 10041 21002
Loading
Personal Weather Stations






























Interactive Weather Map New forecast layout! Learn more

10-Day Weather Forecast

Advertisements
Track Severe Weather on mobile